createdAt,value
2019-02-10T00:00:43.973Z,94743.67
2019-02-10T00:03:12.647Z,94746.03
2019-02-10T00:05:41.351Z,94741.66
2019-02-10T00:08:10.025Z,94735.47
2019-02-10T00:10:38.699Z,94740.16
2019-02-10T00:13:26.382Z,94725.19
2019-02-10T00:15:55.652Z,94743.32
2019-02-10T00:18:24.544Z,94734.37
2019-02-10T00:20:53.220Z,94741.30
2019-02-10T00:23:22.005Z,94746.66
2019-02-10T00:25:50.721Z,94753.77
2019-02-10T00:28:19.403Z,94747.61
2019-02-10T00:30:48.079Z,94754.13
2019-02-10T00:33:16.781Z,94748.32
2019-02-10T00:35:45.456Z,94751.63
2019-02-10T00:38:14.147Z,94752.44
2019-02-10T00:40:42.921Z,94757.95
2019-02-10T00:43:11.716Z,94753.36
2019-02-10T00:45:40.715Z,94747.33
2019-02-10T00:48:09.399Z,94748.73
2019-02-10T00:50:38.075Z,94744.52
2019-02-10T00:53:06.785Z,94741.59
2019-02-10T00:55:35.425Z,94741.17
2019-02-10T00:58:04.105Z,94744.70
2019-02-10T01:00:32.789Z,94740.82
2019-02-10T01:03:01.475Z,94733.70
2019-02-10T01:05:30.132Z,94738.04
2019-02-10T01:07:58.810Z,94728.01
2019-02-10T01:10:27.488Z,94733.36
2019-02-10T01:12:56.182Z,94731.53
2019-02-10T01:15:24.862Z,94738.70
2019-02-10T01:17:53.547Z,94733.70
2019-02-10T01:20:22.217Z,94739.55
2019-02-10T01:22:50.904Z,94729.03
2019-02-10T01:25:19.750Z,94732.45
2019-02-10T01:27:48.425Z,94727.69
2019-02-10T01:30:17.088Z,94716.25
2019-02-10T01:32:45.769Z,94721.36
2019-02-10T01:35:15.416Z,94720.41
2019-02-10T01:37:44.100Z,94713.22
2019-02-10T01:40:12.886Z,94722.16
2019-02-10T01:42:41.672Z,94716.92
2019-02-10T01:45:12.750Z,94723.78
2019-02-10T01:47:41.638Z,94717.48
2019-02-10T01:50:11.778Z,94727.70
2019-02-10T01:52:40.461Z,94713.33
2019-02-10T01:55:13.974Z,94712.56
2019-02-10T01:57:43.087Z,94716.39
2019-02-10T02:00:14.691Z,94713.37
2019-02-10T02:02:43.377Z,94710.30
2019-02-10T02:05:12.242Z,94712.80
2019-02-10T02:07:40.918Z,94721.11
2019-02-10T02:10:13.735Z,94722.87
2019-02-10T02:12:42.395Z,94714.31
2019-02-10T02:15:15.780Z,94715.91
2019-02-10T02:17:44.497Z,94714.49
2019-02-10T02:20:13.651Z,94708.41
2019-02-10T02:22:42.624Z,94711.64
2019-02-10T02:25:14.059Z,94714.73
2019-02-10T02:27:42.766Z,94716.25
2019-02-10T02:30:14.162Z,94716.81
2019-02-10T02:32:42.852Z,94708.12
2019-02-10T02:35:11.667Z,94709.91
2019-02-10T02:37:40.348Z,94706.14
2019-02-10T02:40:10.623Z,94701.64
2019-02-10T02:42:39.589Z,94706.42
2019-02-10T02:45:10.737Z,94705.09
2019-02-10T02:47:39.619Z,94712.27
2019-02-10T02:50:11.989Z,94700.05
2019-02-10T02:52:40.694Z,94696.39
2019-02-10T02:55:10.543Z,94692.13
2019-02-10T02:57:39.246Z,94690.86
2019-02-10T03:00:10.526Z,94696.70
2019-02-10T03:02:39.200Z,94698.36
2019-02-10T03:05:11.208Z,94703.80
2019-02-10T03:07:39.986Z,94710.06
2019-02-10T03:10:09.889Z,94720.10
2019-02-10T03:12:38.584Z,94718.27
2019-02-10T03:15:09.120Z,94714.73
2019-02-10T03:17:37.801Z,94718.09
2019-02-10T03:20:08.377Z,94720.11
2019-02-10T03:22:37.049Z,94710.13
2019-02-10T03:25:07.901Z,94711.77
2019-02-10T03:27:36.572Z,94712.79
2019-02-10T03:30:07.866Z,94708.42
2019-02-10T03:32:36.547Z,94715.29
2019-02-10T03:35:09.240Z,94704.59
2019-02-10T03:37:37.635Z,94702.22
2019-02-10T03:40:10.654Z,94694.45
2019-02-10T03:42:39.292Z,94699.25
2019-02-10T03:45:09.362Z,94697.91
2019-02-10T03:47:38.039Z,94690.38
2019-02-10T03:50:08.629Z,94697.59
2019-02-10T03:52:37.308Z,94704.36
2019-02-10T03:55:08.075Z,94712.17
2019-02-10T03:57:36.890Z,94711.45
2019-02-10T04:00:13.342Z,94716.08
2019-02-10T04:02:42.405Z,94722.52
2019-02-10T04:05:11.119Z,94727.69
2019-02-10T04:07:39.818Z,94729.75
2019-02-10T04:10:10.357Z,94720.23
2019-02-10T04:12:39.048Z,94711.91
2019-02-10T04:15:08.427Z,94724.05
2019-02-10T04:17:39.867Z,94722.05
2019-02-10T04:20:09.743Z,94720.09
2019-02-10T04:22:38.404Z,94719.34
2019-02-10T04:25:07.991Z,94720.05
2019-02-10T04:27:36.666Z,94721.62
2019-02-10T04:30:09.263Z,94723.68
2019-02-10T04:32:38.361Z,94722.30
2019-02-10T04:35:07.133Z,94713.77
2019-02-10T04:37:45.053Z,94718.44
2019-02-10T04:40:07.513Z,94721.94
2019-02-10T04:42:36.192Z,94713.69
2019-02-10T04:45:05.268Z,94715.70
2019-02-10T04:47:33.942Z,94717.66
2019-02-10T04:50:02.628Z,94719.30
2019-02-10T04:52:31.316Z,94723.22
2019-02-10T04:55:00.001Z,94715.81
2019-02-10T04:57:28.694Z,94713.78
2019-02-10T04:59:57.413Z,94731.81
2019-02-10T05:02:26.137Z,94724.16
2019-02-10T05:04:54.824Z,94726.42
2019-02-10T05:07:23.523Z,94722.22
2019-02-10T05:09:52.210Z,94722.78
2019-02-10T05:12:21.805Z,94725.87
2019-02-10T05:14:50.496Z,94724.89
2019-02-10T05:17:19.189Z,94735.66
2019-02-10T05:19:47.870Z,94749.49
2019-02-10T05:22:16.533Z,94741.42
2019-02-10T05:24:45.200Z,94751.27
2019-02-10T05:27:13.887Z,94751.09
2019-02-10T05:29:42.585Z,94755.70
2019-02-10T05:32:11.261Z,94751.16
2019-02-10T05:34:39.927Z,94753.09
2019-02-10T05:37:08.619Z,94754.62
2019-02-10T05:39:37.287Z,94755.30
2019-02-10T05:42:05.988Z,94761.06
2019-02-10T05:44:34.656Z,94759.78
2019-02-10T05:47:03.378Z,94765.05
2019-02-10T05:49:32.041Z,94761.61
2019-02-10T05:52:00.731Z,94751.69
2019-02-10T05:54:29.419Z,94759.50
2019-02-10T05:56:58.102Z,94760.22
2019-02-10T05:59:26.784Z,94764.84
2019-02-10T06:02:01.523Z,94761.12
2019-02-10T06:04:31.048Z,94759.55
2019-02-10T06:07:02.681Z,94765.02
2019-02-10T06:09:31.399Z,94770.97
2019-02-10T06:12:00.275Z,94768.92
2019-02-10T06:14:28.950Z,94774.69
2019-02-10T06:16:57.635Z,94773.03
2019-02-10T06:19:26.320Z,94775.61
2019-02-10T06:21:54.982Z,94778.13
2019-02-10T06:24:23.660Z,94777.95
2019-02-10T06:26:52.336Z,94774.43
2019-02-10T06:29:21.011Z,94777.77
2019-02-10T06:31:49.846Z,94776.09
2019-02-10T06:34:18.527Z,94791.33
2019-02-10T06:36:47.209Z,94787.77
2019-02-10T06:39:15.865Z,94783.97
2019-02-10T06:41:44.537Z,94782.08
2019-02-10T06:44:14.645Z,94785.78
2019-02-10T06:46:43.310Z,94777.58
2019-02-10T06:49:11.990Z,94775.59
2019-02-10T06:51:40.657Z,94783.47
2019-02-10T06:54:09.418Z,94787.77
2019-02-10T06:56:38.088Z,94776.40
2019-02-10T06:59:08.381Z,94790.92
2019-02-10T07:01:38.614Z,94785.02
2019-02-10T07:04:10.958Z,94782.71
2019-02-10T07:06:39.645Z,94779.28
2019-02-10T07:09:08.323Z,94788.99
2019-02-10T07:11:36.988Z,94784.66
2019-02-10T07:14:08.000Z,94788.34
2019-02-10T07:16:48.560Z,94793.49
2019-02-10T07:19:52.889Z,94801.42
2019-02-10T07:22:36.537Z,94798.84
2019-02-10T07:25:17.157Z,94793.69
2019-02-10T07:28:04.466Z,94795.88
2019-02-10T07:30:52.417Z,94804.83
2019-02-10T07:33:29.899Z,94793.44
2019-02-10T07:36:07.346Z,94791.09
2019-02-10T07:38:59.831Z,94797.55
2019-02-10T07:41:55.180Z,94790.22
2019-02-10T07:44:26.769Z,94805.45
2019-02-10T07:47:13.198Z,94800.03
2019-02-10T07:50:02.999Z,94794.73
2019-02-10T07:52:37.606Z,94799.89
2019-02-10T07:55:18.150Z,94791.10
2019-02-10T07:58:23.391Z,94792.52
2019-02-10T08:01:03.859Z,94791.09
2019-02-10T08:03:35.483Z,94791.70
2019-02-10T08:06:19.151Z,94789.30
2019-02-10T08:09:07.191Z,94785.55
2019-02-10T08:11:41.573Z,94785.59
2019-02-10T08:14:15.877Z,94789.96
2019-02-10T08:17:05.623Z,94789.45
2019-02-10T08:20:01.007Z,94787.14
2019-02-10T08:22:50.863Z,94777.16
2019-02-10T08:25:43.343Z,94780.75
2019-02-10T08:28:25.477Z,94777.64
2019-02-10T08:30:58.933Z,94782.06
2019-02-10T08:33:42.444Z,94777.94
2019-02-10T08:36:22.930Z,94773.48
2019-02-10T08:39:00.322Z,94775.72
2019-02-10T08:41:48.542Z,94780.83
2019-02-10T08:44:45.903Z,94773.73
2019-02-10T08:47:23.138Z,94778.52
2019-02-10T08:50:02.102Z,94778.72
2019-02-10T08:52:38.709Z,94776.05
2019-02-10T08:55:07.887Z,94769.33
2019-02-10T08:57:36.645Z,94780.57
2019-02-10T09:00:11.400Z,94782.11
2019-02-10T09:02:40.112Z,94785.18
2019-02-10T09:05:09.101Z,94775.71
2019-02-10T09:07:38.221Z,94778.25
2019-02-10T09:10:10.076Z,94780.78
2019-02-10T09:12:38.751Z,94780.30
2019-02-10T09:15:10.337Z,94772.00
2019-02-10T09:17:39.068Z,94780.39
2019-02-10T09:20:10.586Z,94774.40
2019-02-10T09:22:39.268Z,94774.09
2019-02-10T09:25:10.665Z,94775.38
2019-02-10T09:27:39.334Z,94771.80
2019-02-10T09:30:11.307Z,94773.71
2019-02-10T09:32:39.984Z,94775.80
2019-02-10T09:35:09.306Z,94774.86
2019-02-10T09:37:38.061Z,94776.79
2019-02-10T09:40:09.753Z,94766.67
2019-02-10T09:42:38.440Z,94758.08
2019-02-10T09:45:09.922Z,94760.81
2019-02-10T09:47:38.587Z,94763.35
2019-02-10T09:50:11.258Z,94766.63
2019-02-10T09:52:39.922Z,94755.77
2019-02-10T09:55:09.427Z,94757.05
2019-02-10T09:57:38.103Z,94748.73
2019-02-10T10:00:09.950Z,94752.62
2019-02-10T10:02:38.625Z,94751.20
2019-02-10T10:05:09.391Z,94738.66
2019-02-10T10:07:38.066Z,94741.37
2019-02-10T10:10:09.358Z,94735.14
2019-02-10T10:12:38.027Z,94729.05
2019-02-10T10:15:09.895Z,94725.51
2019-02-10T10:17:38.598Z,94725.24
2019-02-10T10:20:10.468Z,94722.83
2019-02-10T10:22:39.187Z,94720.59
2019-02-10T10:25:09.363Z,94715.16
2019-02-10T10:27:39.601Z,94706.88
2019-02-10T10:30:13.908Z,94708.45
2019-02-10T10:32:42.565Z,94700.64
2019-02-10T10:35:11.333Z,94698.73
2019-02-10T10:37:40.009Z,94692.81
2019-02-10T10:40:11.149Z,94695.53
2019-02-10T10:42:39.934Z,94688.00
2019-02-10T10:45:15.804Z,94681.73
2019-02-10T10:47:44.482Z,94681.98
2019-02-10T10:50:14.653Z,94678.08
2019-02-10T10:52:43.322Z,94682.85
2019-02-10T10:55:13.303Z,94669.48
2019-02-10T10:57:41.997Z,94672.85
2019-02-10T11:00:13.183Z,94665.87
2019-02-10T11:02:41.871Z,94653.17
2019-02-10T11:05:11.245Z,94657.73
2019-02-10T11:07:39.935Z,94645.55
2019-02-10T11:10:10.826Z,94640.75
2019-02-10T11:12:39.523Z,94638.20
2019-02-10T11:15:16.302Z,94630.75
2019-02-10T11:17:45.006Z,94627.73
2019-02-10T11:20:13.796Z,94628.33
2019-02-10T11:22:42.852Z,94623.21
2019-02-10T11:25:12.300Z,94616.52
2019-02-10T11:27:41.010Z,94621.58
2019-02-10T11:30:12.539Z,94617.45
2019-02-10T11:32:41.223Z,94614.63
2019-02-10T11:35:10.591Z,94610.22
2019-02-10T11:37:39.279Z,94601.42
2019-02-10T11:40:12.571Z,94600.61
2019-02-10T11:42:41.246Z,94597.40
2019-02-10T11:45:14.192Z,94593.14
2019-02-10T11:47:42.867Z,94582.09
2019-02-10T11:50:13.017Z,94575.64
2019-02-10T11:52:41.713Z,94581.16
2019-02-10T11:55:11.297Z,94582.47
2019-02-10T11:57:41.280Z,94578.02
2019-02-10T12:00:13.163Z,94572.06
2019-02-10T12:02:41.831Z,94570.47
2019-02-10T12:05:11.933Z,94571.45
2019-02-10T12:07:40.589Z,94567.94
2019-02-10T12:10:11.397Z,94565.19
2019-02-10T12:12:40.063Z,94559.78
2019-02-10T12:15:13.944Z,94555.53
2019-02-10T12:17:42.621Z,94554.19
2019-02-10T12:20:12.807Z,94543.83
2019-02-10T12:22:49.673Z,94539.65
2019-02-10T12:25:11.982Z,94539.88
2019-02-10T12:27:40.653Z,94536.05
2019-02-10T12:30:18.507Z,94530.05
2019-02-10T12:32:47.220Z,94534.75
2019-02-10T12:35:15.888Z,94532.42
2019-02-10T12:37:44.561Z,94530.38
2019-02-10T12:40:13.331Z,94525.20
2019-02-10T12:42:41.998Z,94520.66
2019-02-10T12:45:12.270Z,94511.39
2019-02-10T12:47:40.964Z,94511.16
2019-02-10T12:50:16.042Z,94503.42
2019-02-10T12:52:44.892Z,94502.94
2019-02-10T12:55:13.770Z,94498.73
2019-02-10T12:57:42.555Z,94500.91
2019-02-10T13:00:18.847Z,94498.46
2019-02-10T13:02:47.522Z,94487.17
2019-02-10T13:05:16.204Z,94482.94
2019-02-10T13:07:44.888Z,94484.13
2019-02-10T13:10:17.391Z,94484.71
2019-02-10T13:12:45.351Z,94481.73
2019-02-10T13:15:14.256Z,94486.80
2019-02-10T13:17:43.021Z,94485.05
2019-02-10T13:20:12.826Z,94484.16
2019-02-10T13:22:41.544Z,94476.16
2019-02-10T13:25:12.076Z,94475.56
2019-02-10T13:27:40.755Z,94476.91
2019-02-10T13:30:12.322Z,94473.96
2019-02-10T13:32:40.990Z,94481.08
2019-02-10T13:35:09.673Z,94477.82
2019-02-10T13:37:38.390Z,94468.42
2019-02-10T13:40:18.895Z,94472.84
2019-02-10T13:42:47.570Z,94471.66
2019-02-10T13:45:16.365Z,94471.14
2019-02-10T13:47:45.012Z,94467.41
2019-02-10T13:50:18.515Z,94458.62
2019-02-10T13:52:47.290Z,94456.16
2019-02-10T13:55:16.850Z,94455.46
2019-02-10T13:57:45.529Z,94449.24
2019-02-10T14:00:16.404Z,94447.81
2019-02-10T14:02:45.186Z,94451.84
2019-02-10T14:05:13.911Z,94453.11
2019-02-10T14:07:42.598Z,94455.19
2019-02-10T14:10:16.173Z,94442.22
2019-02-10T14:12:45.064Z,94447.65
2019-02-10T14:15:15.686Z,94443.48
2019-02-10T14:17:44.501Z,94443.16
2019-02-10T14:20:18.132Z,94446.53
2019-02-10T14:22:46.909Z,94439.05
2019-02-10T14:25:15.686Z,94428.36
2019-02-10T14:27:44.367Z,94433.59
2019-02-10T14:30:17.157Z,94431.70
2019-02-10T14:32:45.969Z,94430.90
2019-02-10T14:35:14.695Z,94432.30
2019-02-10T14:37:43.619Z,94420.19
2019-02-10T14:40:12.390Z,94425.77
2019-02-10T14:42:41.076Z,94427.92
2019-02-10T14:45:12.961Z,94424.94
2019-02-10T14:47:41.906Z,94425.92
2019-02-10T14:50:19.573Z,94427.45
2019-02-10T14:52:48.256Z,94420.19
2019-02-10T14:55:16.946Z,94419.02
2019-02-10T14:57:45.641Z,94417.86
2019-02-10T15:00:16.219Z,94422.77
2019-02-10T15:02:44.919Z,94421.23
2019-02-10T15:05:13.876Z,94417.03
2019-02-10T15:07:42.559Z,94417.25
2019-02-10T15:10:16.309Z,94414.77
2019-02-10T15:12:44.983Z,94412.05
2019-02-10T15:15:13.663Z,94413.06
2019-02-10T15:17:42.525Z,94413.61
2019-02-10T15:20:13.309Z,94403.50
2019-02-10T15:22:42.011Z,94400.35
2019-02-10T15:25:14.470Z,94408.80
2019-02-10T15:27:43.155Z,94405.95
2019-02-10T15:30:13.523Z,94411.23
2019-02-10T15:32:42.306Z,94409.09
2019-02-10T15:35:11.065Z,94412.08
2019-02-10T15:37:39.753Z,94409.89
2019-02-10T15:40:12.678Z,94409.25
2019-02-10T15:42:41.411Z,94405.22
2019-02-10T15:45:12.641Z,94404.14
2019-02-10T15:47:41.307Z,94404.52
2019-02-10T15:50:12.087Z,94402.33
2019-02-10T15:52:40.771Z,94398.13
2019-02-10T15:55:14.093Z,94395.48
2019-02-10T15:57:42.839Z,94401.84
2019-02-10T16:00:15.442Z,94407.26
2019-02-10T16:02:44.063Z,94400.58
2019-02-10T16:05:12.759Z,94406.94
2019-02-10T16:07:41.432Z,94411.43
2019-02-10T16:10:11.475Z,94407.56
2019-02-10T16:12:40.149Z,94404.94
2019-02-10T16:15:11.151Z,94396.59
2019-02-10T16:17:39.824Z,94398.81
2019-02-10T16:20:13.515Z,94398.78
2019-02-10T16:22:42.167Z,94405.86
2019-02-10T16:25:11.626Z,94406.20
2019-02-10T16:27:40.290Z,94410.00
2019-02-10T16:30:14.820Z,94409.59
2019-02-10T16:32:49.667Z,94406.34
2019-02-10T16:35:13.936Z,94399.24
2019-02-10T16:37:42.590Z,94398.80
2019-02-10T16:40:16.634Z,94403.26
2019-02-10T16:42:45.539Z,94400.32
2019-02-10T16:45:14.652Z,94406.56
2019-02-10T16:47:43.446Z,94403.48
2019-02-10T16:50:16.208Z,94392.16
2019-02-10T16:52:44.998Z,94389.31
2019-02-10T16:55:21.015Z,94387.12
2019-02-10T16:57:49.689Z,94383.87
2019-02-10T17:00:18.653Z,94383.92
2019-02-10T17:02:47.337Z,94391.16
2019-02-10T17:05:16.461Z,94387.58
2019-02-10T17:07:45.145Z,94387.61
2019-02-10T17:10:16.743Z,94383.09
2019-02-10T17:12:45.406Z,94378.48
2019-02-10T17:15:15.174Z,94379.22
2019-02-10T17:17:43.849Z,94380.77
2019-02-10T17:20:13.442Z,94374.27
2019-02-10T17:22:42.113Z,94370.25
2019-02-10T17:25:22.496Z,94374.56
2019-02-10T17:27:51.165Z,94368.34
2019-02-10T17:30:19.846Z,94382.31
2019-02-10T17:32:48.549Z,94378.36
2019-02-10T17:35:17.227Z,94376.56
2019-02-10T17:37:45.903Z,94372.30
2019-02-10T17:40:29.222Z,94369.66
2019-02-10T17:42:57.900Z,94367.38
2019-02-10T17:45:26.575Z,94366.46
2019-02-10T17:47:55.262Z,94358.78
2019-02-10T17:50:23.982Z,94359.64
2019-02-10T17:52:52.650Z,94358.17
2019-02-10T17:55:21.333Z,94356.45
2019-02-10T17:57:50.045Z,94352.83
2019-02-10T18:00:20.433Z,94357.62
2019-02-10T18:02:49.158Z,94357.88
2019-02-10T18:05:17.867Z,94356.97
2019-02-10T18:07:46.533Z,94358.32
2019-02-10T18:10:15.702Z,94354.45
2019-02-10T18:12:44.389Z,94351.19
2019-02-10T18:15:14.663Z,94351.63
2019-02-10T18:17:47.639Z,94351.96
2019-02-10T18:20:17.888Z,94345.96
2019-02-10T18:23:00.169Z,94348.23
2019-02-10T18:25:42.475Z,94346.37
2019-02-10T18:28:29.086Z,94353.46
2019-02-10T18:30:59.324Z,94348.12
2019-02-10T18:33:38.615Z,94341.14
2019-02-10T18:36:11.753Z,94339.45
2019-02-10T18:38:42.027Z,94342.52
2019-02-10T18:41:15.401Z,94345.42
2019-02-10T18:43:51.683Z,94335.95
2019-02-10T18:46:21.974Z,94330.57
2019-02-10T18:48:52.248Z,94331.52
2019-02-10T18:51:28.353Z,94324.84
2019-02-10T18:54:13.877Z,94320.94
2019-02-10T18:56:50.239Z,94322.70
2019-02-10T18:59:36.843Z,94316.73
2019-02-10T19:02:07.512Z,94307.63
2019-02-10T19:04:40.733Z,94336.06
2019-02-10T19:07:11.073Z,94335.22
2019-02-10T19:09:41.311Z,94333.13
2019-02-10T19:12:11.550Z,94339.49
2019-02-10T19:14:44.386Z,94345.07
2019-02-10T19:17:16.682Z,94339.47
2019-02-10T19:19:46.920Z,94334.28
2019-02-10T19:22:18.634Z,94338.23
2019-02-10T19:24:48.866Z,94347.39
2019-02-10T19:27:19.100Z,94337.16
2019-02-10T19:29:52.528Z,94342.69
2019-02-10T19:32:29.070Z,94341.99
2019-02-10T19:34:59.314Z,94347.49
2019-02-10T19:37:32.296Z,94340.89
2019-02-10T19:40:11.386Z,94347.42
2019-02-10T19:42:53.625Z,94344.22
2019-02-10T19:45:27.016Z,94329.09
2019-02-10T19:47:57.302Z,94337.87
2019-02-10T19:50:33.426Z,94339.11
2019-02-10T19:53:19.228Z,94340.45
2019-02-10T19:56:06.071Z,94332.31
2019-02-10T19:58:39.536Z,94332.16
2019-02-10T20:01:15.755Z,94332.11
2019-02-10T20:03:46.334Z,94337.06
2019-02-10T20:06:16.585Z,94324.31
2019-02-10T20:09:02.097Z,94319.23
2019-02-10T20:11:32.564Z,94317.41
2019-02-10T20:14:17.874Z,94315.16
2019-02-10T20:16:48.124Z,94298.44
2019-02-10T20:19:18.399Z,94303.61
2019-02-10T20:21:51.244Z,94289.19
2019-02-10T20:24:27.328Z,94280.52
2019-02-10T20:27:12.749Z,94298.32
2019-02-10T20:29:42.987Z,94297.34
2019-02-10T20:32:19.145Z,94282.92
2019-02-10T20:34:52.267Z,94276.66
2019-02-10T20:37:28.260Z,94283.34
2019-02-10T20:40:14.741Z,94285.63
2019-02-10T20:42:45.414Z,94272.25
2019-02-10T20:45:15.666Z,94272.88
2019-02-10T20:47:51.672Z,94283.37
2019-02-10T20:50:22.110Z,94288.20
2019-02-10T20:52:52.423Z,94283.29
2019-02-10T20:55:22.680Z,94291.14
2019-02-10T20:57:55.934Z,94285.92
2019-02-10T21:00:26.180Z,94267.70
2019-02-10T21:03:05.434Z,94266.91
2019-02-10T21:05:41.863Z,94276.99
2019-02-10T21:08:24.279Z,94275.07
2019-02-10T21:10:55.107Z,94259.52
2019-02-10T21:13:31.355Z,94248.47
2019-02-10T21:16:01.594Z,94243.20
2019-02-10T21:18:31.867Z,94251.89
2019-02-10T21:21:08.447Z,94249.67
2019-02-10T21:23:50.608Z,94254.66
2019-02-10T21:26:20.849Z,94237.13
2019-02-10T21:28:51.084Z,94217.00
2019-02-10T21:31:36.602Z,94220.46
2019-02-10T21:34:06.845Z,94230.48
2019-02-10T21:36:37.144Z,94236.09
2019-02-10T21:39:20.817Z,94233.88
2019-02-10T21:42:01.206Z,94241.36
2019-02-10T21:44:47.623Z,94223.61
2019-02-10T21:47:17.877Z,94209.20
2019-02-10T21:49:46.533Z,94215.48
2019-02-10T21:52:15.260Z,94224.91
2019-02-10T21:54:44.094Z,94214.12
2019-02-10T21:57:12.756Z,94226.72
2019-02-10T21:59:41.449Z,94224.39
2019-02-10T22:02:10.120Z,94200.77
2019-02-10T22:04:38.816Z,94209.06
2019-02-10T22:07:07.706Z,94229.13
2019-02-10T22:09:36.395Z,94204.83
2019-02-10T22:12:05.090Z,94188.13
2019-02-10T22:14:34.059Z,94195.48
2019-02-10T22:17:02.735Z,94202.97
2019-02-10T22:19:31.398Z,94202.24
2019-02-10T22:22:00.117Z,94198.50
2019-02-10T22:24:28.787Z,94189.80
2019-02-10T22:26:57.451Z,94191.04
2019-02-10T22:29:26.257Z,94184.51
2019-02-10T22:31:54.930Z,94175.19
2019-02-10T22:34:23.602Z,94171.09
2019-02-10T22:36:52.469Z,94174.09
2019-02-10T22:39:21.145Z,94172.42
2019-02-10T22:41:49.813Z,94157.83
2019-02-10T22:44:18.636Z,94160.88
2019-02-10T22:46:47.298Z,94162.89
2019-02-10T22:49:15.981Z,94172.32
2019-02-10T22:51:44.669Z,94167.67
2019-02-10T22:54:13.366Z,94172.02
2019-02-10T22:56:42.220Z,94157.52
2019-02-10T22:59:10.899Z,94160.83
2019-02-10T23:01:39.574Z,94164.44
2019-02-10T23:04:08.309Z,94145.44
2019-02-10T23:06:36.988Z,94156.05
2019-02-10T23:09:09.242Z,94156.35
2019-02-10T23:11:37.904Z,94150.05
2019-02-10T23:14:06.609Z,94155.59
2019-02-10T23:16:35.273Z,94133.47
2019-02-10T23:19:03.940Z,94147.51
2019-02-10T23:21:32.638Z,94144.76
2019-02-10T23:24:01.309Z,94141.91
2019-02-10T23:26:29.991Z,94153.42
2019-02-10T23:28:58.753Z,94151.35
2019-02-10T23:31:27.871Z,94149.13
2019-02-10T23:33:56.536Z,94152.27
2019-02-10T23:36:25.429Z,94143.88
2019-02-10T23:38:54.140Z,94144.05
2019-02-10T23:41:22.814Z,94138.50
2019-02-10T23:43:51.519Z,94123.64
2019-02-10T23:46:20.400Z,94121.87
2019-02-10T23:48:49.085Z,94114.20
2019-02-10T23:51:17.756Z,94121.36
2019-02-10T23:53:46.559Z,94124.68
2019-02-10T23:56:15.250Z,94128.92
2019-02-10T23:58:43.947Z,94131.20
